createdAt,value
2024-01-17T00:00:21.160Z,95425.73
2024-01-17T00:03:09.310Z,95429.02
2024-01-17T00:05:37.957Z,95426.89
2024-01-17T00:08:06.230Z,95426.86
2024-01-17T00:10:34.245Z,95420.87
2024-01-17T00:13:03.754Z,95421.92
2024-01-17T00:15:31.869Z,95425.86
2024-01-17T00:17:59.928Z,95422.48
2024-01-17T00:20:28.531Z,95418.42
2024-01-17T00:22:56.644Z,95413.65
2024-01-17T00:25:24.779Z,95409.14
2024-01-17T00:27:52.779Z,95405.52
2024-01-17T00:30:21.026Z,95404.77
2024-01-17T00:32:49.139Z,95402.89
2024-01-17T00:35:17.156Z,95405.25
2024-01-17T00:37:45.190Z,95414.40
2024-01-17T00:40:13.399Z,95418.08
2024-01-17T00:42:42.137Z,95425.48
2024-01-17T00:45:11.644Z,95431.23
2024-01-17T00:47:39.987Z,95432.47
2024-01-17T00:50:09.046Z,95433.80
2024-01-17T00:52:37.097Z,95432.81
2024-01-17T00:55:06.675Z,95432.76
2024-01-17T00:57:34.643Z,95427.92
2024-01-17T01:00:03.525Z,95422.56
2024-01-17T01:02:31.969Z,95421.38
2024-01-17T01:05:00.036Z,95416.54
2024-01-17T01:07:28.092Z,95416.42
2024-01-17T01:09:57.558Z,95409.27
2024-01-17T01:12:26.059Z,95409.89
2024-01-17T01:14:54.381Z,95406.91
2024-01-17T01:17:22.592Z,95402.84
2024-01-17T01:19:50.946Z,95398.05
2024-01-17T01:22:18.929Z,95391.75
2024-01-17T01:24:46.906Z,95392.78
2024-01-17T01:27:14.878Z,95390.88
2024-01-17T01:29:43.426Z,95393.62
2024-01-17T01:32:11.518Z,95395.83
2024-01-17T01:34:39.924Z,95390.63
2024-01-17T01:37:08.046Z,95389.04
2024-01-17T01:39:36.017Z,95387.66
2024-01-17T01:42:04.566Z,95389.66
2024-01-17T01:44:32.898Z,95383.59
2024-01-17T01:47:01.014Z,95379.93
2024-01-17T01:49:29.247Z,95377.50
2024-01-17T01:51:57.596Z,95379.22
2024-01-17T01:54:26.623Z,95380.73
2024-01-17T01:56:55.008Z,95373.36
2024-01-17T01:59:23.165Z,95370.71
2024-01-17T02:01:51.308Z,95368.40
2024-01-17T02:04:19.411Z,95370.77
2024-01-17T02:06:49.461Z,95367.02
2024-01-17T02:09:17.594Z,95365.38
2024-01-17T02:11:46.584Z,95360.36
2024-01-17T02:14:20.508Z,95359.98
2024-01-17T02:16:50.772Z,95362.91
2024-01-17T02:19:19.261Z,95362.83
2024-01-17T02:21:47.308Z,95359.05
2024-01-17T02:24:19.535Z,95352.23
2024-01-17T02:26:47.790Z,95351.64
2024-01-17T02:29:15.975Z,95351.36
2024-01-17T02:31:45.442Z,95353.64
2024-01-17T02:34:14.160Z,95352.57
2024-01-17T02:36:42.173Z,95350.70
2024-01-17T02:39:11.773Z,95342.17
2024-01-17T02:41:39.793Z,95340.68
2024-01-17T02:44:07.911Z,95340.02
2024-01-17T02:46:36.014Z,95330.20
2024-01-17T02:49:04.526Z,95328.96
2024-01-17T02:51:32.766Z,95324.52
2024-01-17T02:54:00.957Z,95323.09
2024-01-17T02:56:29.202Z,95317.58
2024-01-17T02:58:57.168Z,95312.60
2024-01-17T03:01:25.100Z,95302.86
2024-01-17T03:03:53.113Z,95297.48
2024-01-17T03:06:21.237Z,95293.73
2024-01-17T03:08:49.264Z,95296.89
2024-01-17T03:11:17.430Z,95294.33
2024-01-17T03:13:45.482Z,95295.29
2024-01-17T03:16:15.189Z,95301.00
2024-01-17T03:18:43.386Z,95298.23
2024-01-17T03:21:11.535Z,95300.10
2024-01-17T03:23:39.670Z,95297.53
2024-01-17T03:26:07.728Z,95303.73
2024-01-17T03:28:35.746Z,95301.80
2024-01-17T03:31:03.972Z,95302.63
2024-01-17T03:33:32.090Z,95303.46
2024-01-17T03:36:00.253Z,95303.16
2024-01-17T03:38:28.255Z,95302.68
2024-01-17T03:40:57.600Z,95304.68
2024-01-17T03:43:25.652Z,95296.73
2024-01-17T03:45:55.657Z,95295.45
2024-01-17T03:48:23.836Z,95296.66
2024-01-17T03:50:52.241Z,95296.70
2024-01-17T03:53:20.313Z,95298.91
2024-01-17T03:55:48.337Z,95300.79
2024-01-17T03:58:16.409Z,95304.97
2024-01-17T04:00:45.428Z,95302.30
2024-01-17T04:03:14.120Z,95302.63
2024-01-17T04:05:43.015Z,95305.85
2024-01-17T04:08:11.062Z,95304.83
2024-01-17T04:10:39.062Z,95302.45
2024-01-17T04:13:07.018Z,95306.83
2024-01-17T04:15:35.088Z,95300.10
2024-01-17T04:18:03.311Z,95291.55
2024-01-17T04:20:31.475Z,95286.13
2024-01-17T04:22:59.844Z,95284.83
2024-01-17T04:25:27.954Z,95284.55
2024-01-17T04:27:55.885Z,95285.30
2024-01-17T04:30:23.969Z,95284.13
2024-01-17T04:32:52.127Z,95278.92
2024-01-17T04:35:21.875Z,95276.43
2024-01-17T04:37:49.890Z,95275.24
2024-01-17T04:40:17.813Z,95272.05
2024-01-17T04:42:49.746Z,95271.02
2024-01-17T04:45:20.691Z,95265.48
2024-01-17T04:47:51.491Z,95263.50
2024-01-17T04:50:19.677Z,95260.37
2024-01-17T04:52:47.698Z,95252.30
2024-01-17T04:55:17.104Z,95245.39
2024-01-17T04:57:45.053Z,95235.91
2024-01-17T05:00:16.216Z,95231.14
2024-01-17T05:02:44.229Z,95229.95
2024-01-17T05:05:12.421Z,95228.42
2024-01-17T05:07:41.100Z,95229.95
2024-01-17T05:10:09.275Z,95228.14
2024-01-17T05:12:37.317Z,95227.20
2024-01-17T05:15:05.643Z,95224.10
2024-01-17T05:17:33.921Z,95219.88
2024-01-17T05:20:02.223Z,95214.81
2024-01-17T05:22:30.242Z,95212.52
2024-01-17T05:24:58.213Z,95206.24
2024-01-17T05:27:26.201Z,95205.70
2024-01-17T05:29:54.723Z,95202.61
2024-01-17T05:32:22.819Z,95203.08
2024-01-17T05:34:51.816Z,95199.71
2024-01-17T05:37:22.913Z,95201.14
2024-01-17T05:39:50.884Z,95195.38
2024-01-17T05:42:18.864Z,95191.50
2024-01-17T05:44:46.852Z,95193.60
2024-01-17T05:47:15.893Z,95193.14
2024-01-17T05:49:44.150Z,95187.92
2024-01-17T05:52:12.093Z,95182.23
2024-01-17T05:54:40.507Z,95175.11
2024-01-17T05:57:08.596Z,95172.77
2024-01-17T05:59:36.894Z,95174.52
2024-01-17T06:02:04.935Z,95170.84
2024-01-17T06:04:34.325Z,95166.83
2024-01-17T06:07:02.359Z,95162.33
2024-01-17T06:09:30.950Z,95155.35
2024-01-17T06:11:58.956Z,95154.03
2024-01-17T06:14:27.161Z,95150.55
2024-01-17T06:16:55.077Z,95151.91
2024-01-17T06:19:23.143Z,95149.34
2024-01-17T06:21:51.071Z,95143.43
2024-01-17T06:24:18.980Z,95142.91
2024-01-17T06:26:47.001Z,95143.35
2024-01-17T06:29:15.064Z,95149.27
2024-01-17T06:31:43.142Z,95146.52
2024-01-17T06:34:11.295Z,95138.30
2024-01-17T06:36:40.983Z,95145.23
2024-01-17T06:39:09.032Z,95149.02
2024-01-17T06:41:38.023Z,95149.20
2024-01-17T06:44:06.077Z,95154.27
2024-01-17T06:46:34.165Z,95145.77
2024-01-17T06:49:02.482Z,95144.40
2024-01-17T06:51:30.883Z,95141.38
2024-01-17T06:54:00.053Z,95136.27
2024-01-17T06:56:28.585Z,95131.23
2024-01-17T06:58:57.004Z,95123.61
2024-01-17T07:01:25.222Z,95116.42
2024-01-17T07:03:53.397Z,95112.93
2024-01-17T07:06:21.740Z,95104.33
2024-01-17T07:08:50.090Z,95099.09
2024-01-17T07:11:19.276Z,95100.70
2024-01-17T07:13:48.230Z,95094.50
2024-01-17T07:16:16.898Z,95089.32
2024-01-17T07:18:44.953Z,95089.92
2024-01-17T07:21:13.662Z,95086.80
2024-01-17T07:23:43.153Z,95084.15
2024-01-17T07:26:11.219Z,95079.54
2024-01-17T07:28:39.308Z,95073.82
2024-01-17T07:31:07.271Z,95073.36
2024-01-17T07:33:35.398Z,95076.32
2024-01-17T07:36:04.002Z,95074.12
2024-01-17T07:38:32.231Z,95072.10
2024-01-17T07:41:00.307Z,95065.92
2024-01-17T07:43:28.444Z,95062.26
2024-01-17T07:45:57.366Z,95056.41
2024-01-17T07:48:25.610Z,95045.67
2024-01-17T07:50:53.950Z,95043.14
2024-01-17T07:53:22.006Z,95041.65
2024-01-17T07:55:50.204Z,95039.64
2024-01-17T07:58:18.226Z,95034.92
2024-01-17T08:00:46.364Z,95039.48
2024-01-17T08:03:15.077Z,95035.39
2024-01-17T08:05:44.121Z,95029.95
2024-01-17T08:08:12.428Z,95025.46
2024-01-17T08:10:40.491Z,95014.20
2024-01-17T08:13:08.459Z,95018.50
2024-01-17T08:15:36.645Z,95013.30
2024-01-17T08:18:05.253Z,95008.76
2024-01-17T08:20:33.851Z,95006.59
2024-01-17T08:23:06.370Z,95002.40
2024-01-17T08:25:34.419Z,94998.91
2024-01-17T08:28:02.508Z,94989.23
2024-01-17T08:30:30.665Z,94984.73
2024-01-17T08:32:58.837Z,94983.60
2024-01-17T08:35:27.022Z,94982.05
2024-01-17T08:37:55.208Z,94976.00
2024-01-17T08:40:23.269Z,94972.19
2024-01-17T08:42:53.325Z,94970.84
2024-01-17T08:45:21.415Z,94965.71
2024-01-17T08:47:50.379Z,94960.08
2024-01-17T08:50:18.669Z,94950.34
2024-01-17T08:52:46.617Z,94953.19
2024-01-17T08:55:14.812Z,94953.70
2024-01-17T08:57:42.905Z,94945.98
2024-01-17T09:00:12.838Z,94944.23
2024-01-17T09:02:42.106Z,94939.16
2024-01-17T09:05:10.263Z,94938.73
2024-01-17T09:07:38.590Z,94931.48
2024-01-17T09:10:07.985Z,94933.15
2024-01-17T09:12:35.919Z,94923.00
2024-01-17T09:15:04.307Z,94926.54
2024-01-17T09:17:34.395Z,94921.67
2024-01-17T09:20:02.640Z,94921.16
2024-01-17T09:22:30.875Z,94917.36
2024-01-17T09:25:01.878Z,94911.73
2024-01-17T09:27:30.668Z,94900.02
2024-01-17T09:29:59.419Z,94894.36
2024-01-17T09:32:27.535Z,94894.84
2024-01-17T09:34:55.845Z,94891.81
2024-01-17T09:37:25.125Z,94888.02
2024-01-17T09:39:54.109Z,94889.34
2024-01-17T09:42:22.513Z,94884.80
2024-01-17T09:44:50.712Z,94873.13
2024-01-17T09:47:19.993Z,94863.07
2024-01-17T09:49:48.131Z,94853.06
2024-01-17T09:52:19.294Z,94845.45
2024-01-17T09:54:49.604Z,94836.41
2024-01-17T09:57:25.688Z,94838.51
2024-01-17T09:59:58.220Z,94828.20
2024-01-17T10:02:28.323Z,94819.05
2024-01-17T10:04:58.773Z,94813.39
2024-01-17T10:07:26.933Z,94809.65
2024-01-17T10:09:55.015Z,94799.73
2024-01-17T10:12:23.160Z,94793.71
2024-01-17T10:14:51.426Z,94791.88
2024-01-17T10:17:20.602Z,94786.09
2024-01-17T10:19:49.123Z,94782.02
2024-01-17T10:22:18.960Z,94776.57
2024-01-17T10:24:47.086Z,94775.61
2024-01-17T10:27:15.134Z,94769.22
2024-01-17T10:29:43.459Z,94767.24
2024-01-17T10:32:11.454Z,94756.15
2024-01-17T10:34:40.014Z,94752.23
2024-01-17T10:37:12.843Z,94747.19
2024-01-17T10:39:42.054Z,94740.87
2024-01-17T10:42:19.779Z,94733.98
2024-01-17T10:44:48.688Z,94732.42
2024-01-17T10:47:16.737Z,94734.87
2024-01-17T10:49:46.084Z,94730.05
2024-01-17T10:52:16.769Z,94728.27
2024-01-17T10:54:47.977Z,94714.66
2024-01-17T10:57:17.237Z,94708.18
2024-01-17T10:59:50.303Z,94701.60
2024-01-17T11:02:23.376Z,94689.65
2024-01-17T11:04:58.545Z,94686.11
2024-01-17T11:07:26.676Z,94680.02
2024-01-17T11:09:56.286Z,94673.21
2024-01-17T11:12:26.445Z,94665.52
2024-01-17T11:14:58.370Z,94658.94
2024-01-17T11:17:35.656Z,94650.57
2024-01-17T11:20:13.347Z,94644.52
2024-01-17T11:22:41.754Z,94641.92
2024-01-17T11:25:24.537Z,94642.80
2024-01-17T11:28:23.498Z,94642.02
2024-01-17T11:30:57.586Z,94640.72
2024-01-17T11:33:31.763Z,94639.36
2024-01-17T11:36:00.285Z,94630.95
2024-01-17T11:38:33.505Z,94627.64
2024-01-17T11:41:07.817Z,94622.27
2024-01-17T11:43:42.657Z,94618.02
2024-01-17T11:46:11.939Z,94606.20
2024-01-17T11:48:41.931Z,94598.88
2024-01-17T11:51:13.417Z,94598.98
2024-01-17T11:53:47.662Z,94588.50
2024-01-17T11:56:17.678Z,94585.98
2024-01-17T11:58:53.629Z,94577.67
2024-01-17T12:01:25.334Z,94568.41
2024-01-17T12:03:53.898Z,94560.12
2024-01-17T12:06:23.409Z,94558.25
2024-01-17T12:08:53.797Z,94549.32
2024-01-17T12:11:23.320Z,94543.43
2024-01-17T12:13:53.794Z,94548.76
2024-01-17T12:16:24.259Z,94540.42
2024-01-17T12:18:59.954Z,94535.36
2024-01-17T12:21:28.696Z,94529.05
2024-01-17T12:23:57.703Z,94525.58
2024-01-17T12:26:25.746Z,94521.86
2024-01-17T12:29:07.319Z,94516.20
2024-01-17T12:31:35.847Z,94513.61
2024-01-17T12:34:05.973Z,94510.58
2024-01-17T12:36:36.802Z,94508.21
2024-01-17T12:39:06.769Z,94502.02
2024-01-17T12:41:37.204Z,94493.05
2024-01-17T12:44:09.402Z,94484.81
2024-01-17T12:46:37.655Z,94480.88
2024-01-17T12:49:06.417Z,94478.02
2024-01-17T12:51:35.894Z,94473.26
2024-01-17T12:54:06.017Z,94468.69
2024-01-17T12:56:36.557Z,94467.10
2024-01-17T12:59:05.948Z,94464.67
2024-01-17T13:01:36.281Z,94454.61
2024-01-17T13:04:07.124Z,94452.39
2024-01-17T13:06:49.400Z,94446.18
2024-01-17T13:09:22.713Z,94439.46
2024-01-17T13:11:55.623Z,94434.58
2024-01-17T13:14:25.486Z,94424.77
2024-01-17T13:16:57.603Z,94423.48
2024-01-17T13:19:25.822Z,94417.86
2024-01-17T13:21:53.935Z,94415.39
2024-01-17T13:24:23.538Z,94414.88
2024-01-17T13:26:51.782Z,94405.01
2024-01-17T13:29:20.893Z,94399.92
2024-01-17T13:31:49.053Z,94399.45
2024-01-17T13:34:17.177Z,94398.77
2024-01-17T13:36:45.343Z,94389.74
2024-01-17T13:39:13.604Z,94389.89
2024-01-17T13:41:42.994Z,94388.09
2024-01-17T13:44:13.211Z,94388.69
2024-01-17T13:46:41.711Z,94387.13
2024-01-17T13:49:10.220Z,94386.58
2024-01-17T13:51:47.817Z,94381.81
2024-01-17T13:54:21.014Z,94378.41
2024-01-17T13:56:49.178Z,94377.09
2024-01-17T13:59:17.287Z,94365.83
2024-01-17T14:01:45.373Z,94360.98
2024-01-17T14:04:13.593Z,94357.30
2024-01-17T14:06:41.977Z,94354.60
2024-01-17T14:09:10.332Z,94354.95
2024-01-17T14:11:40.470Z,94347.30
2024-01-17T14:14:13.121Z,94342.27
2024-01-17T14:16:42.371Z,94333.45
2024-01-17T14:19:11.210Z,94330.63
2024-01-17T14:21:39.456Z,94324.77
2024-01-17T14:24:07.768Z,94326.02
2024-01-17T14:26:39.104Z,94327.66
2024-01-17T14:29:08.623Z,94324.30
2024-01-17T14:31:36.726Z,94331.06
2024-01-17T14:34:05.239Z,94328.41
2024-01-17T14:36:34.806Z,94325.52
2024-01-17T14:39:03.382Z,94316.52
2024-01-17T14:41:31.501Z,94314.73
2024-01-17T14:43:59.491Z,94311.02
2024-01-17T14:46:28.091Z,94304.17
2024-01-17T14:48:56.083Z,94299.42
2024-01-17T14:51:24.174Z,94297.91
2024-01-17T14:53:52.304Z,94292.50
2024-01-17T14:56:21.096Z,94284.98
2024-01-17T14:58:49.163Z,94284.83
2024-01-17T15:01:17.203Z,94277.05
2024-01-17T15:03:45.273Z,94269.97
2024-01-17T15:06:23.958Z,94270.89
2024-01-17T15:08:52.868Z,94264.86
2024-01-17T15:11:21.011Z,94259.85
2024-01-17T15:13:49.151Z,94257.48
2024-01-17T15:16:23.925Z,94248.59
2024-01-17T15:18:53.756Z,94245.55
2024-01-17T15:21:22.234Z,94242.34
2024-01-17T15:23:50.327Z,94240.24
2024-01-17T15:26:18.550Z,94242.02
2024-01-17T15:28:48.270Z,94234.35
2024-01-17T15:31:16.927Z,94239.73
2024-01-17T15:33:45.106Z,94238.53
2024-01-17T15:36:13.345Z,94239.17
2024-01-17T15:38:45.312Z,94235.00
2024-01-17T15:41:16.354Z,94232.24
2024-01-17T15:43:45.033Z,94223.35
2024-01-17T15:46:13.028Z,94217.02
2024-01-17T15:48:41.666Z,94210.30
2024-01-17T15:51:10.353Z,94204.77
2024-01-17T15:53:38.454Z,94197.46
2024-01-17T15:56:06.531Z,94194.41
2024-01-17T15:58:34.798Z,94189.42
2024-01-17T16:01:07.030Z,94183.00
2024-01-17T16:03:35.247Z,94181.77
2024-01-17T16:06:06.129Z,94179.98
2024-01-17T16:08:34.414Z,94175.28
2024-01-17T16:11:02.477Z,94170.86
2024-01-17T16:13:30.436Z,94167.02
2024-01-17T16:15:58.571Z,94160.39
2024-01-17T16:18:26.766Z,94162.98
2024-01-17T16:20:55.293Z,94160.77
2024-01-17T16:23:23.310Z,94156.53
2024-01-17T16:25:51.434Z,94156.02
2024-01-17T16:28:21.987Z,94150.86
2024-01-17T16:30:55.370Z,94151.09
2024-01-17T16:33:24.004Z,94154.44
2024-01-17T16:35:52.434Z,94155.29
2024-01-17T16:38:20.402Z,94155.50
2024-01-17T16:40:48.384Z,94153.33
2024-01-17T16:43:16.777Z,94152.79
2024-01-17T16:45:44.882Z,94151.52
2024-01-17T16:48:13.068Z,94148.25
2024-01-17T16:50:43.317Z,94152.63
2024-01-17T16:53:12.838Z,94152.73
2024-01-17T16:55:41.084Z,94143.55
2024-01-17T16:58:09.279Z,94146.00
2024-01-17T17:00:37.814Z,94146.61
2024-01-17T17:03:06.025Z,94145.67
2024-01-17T17:05:34.207Z,94143.13
2024-01-17T17:08:02.162Z,94140.88
2024-01-17T17:10:32.997Z,94136.02
2024-01-17T17:13:01.088Z,94129.27
2024-01-17T17:15:29.179Z,94126.30
2024-01-17T17:17:57.449Z,94125.81
2024-01-17T17:20:25.835Z,94129.37
2024-01-17T17:22:54.245Z,94121.24
2024-01-17T17:25:22.478Z,94119.13
2024-01-17T17:27:51.969Z,94110.36
2024-01-17T17:30:20.213Z,94108.71
2024-01-17T17:32:48.535Z,94102.89
2024-01-17T17:35:16.937Z,94104.02
2024-01-17T17:37:45.492Z,94100.20
2024-01-17T17:40:15.413Z,94091.55
2024-01-17T17:42:48.043Z,94087.07
2024-01-17T17:45:18.233Z,94079.92
2024-01-17T17:47:48.130Z,94073.04
2024-01-17T17:50:27.067Z,94060.50
2024-01-17T17:52:59.405Z,94054.98
2024-01-17T17:55:27.578Z,94055.27
2024-01-17T17:57:55.690Z,94049.42
2024-01-17T18:00:24.447Z,94047.86
2024-01-17T18:02:53.067Z,94031.45
2024-01-17T18:05:21.463Z,94015.36
2024-01-17T18:07:51.650Z,94007.95
2024-01-17T18:10:21.945Z,93998.66
2024-01-17T18:12:51.086Z,94000.31
2024-01-17T18:15:19.287Z,93994.66
2024-01-17T18:17:48.922Z,93991.80
2024-01-17T18:20:22.558Z,93994.37
2024-01-17T18:22:54.433Z,93991.80
2024-01-17T18:25:24.197Z,93985.13
2024-01-17T18:27:53.283Z,93979.41
2024-01-17T18:30:21.403Z,93971.63
2024-01-17T18:32:51.138Z,93970.07
2024-01-17T18:35:19.760Z,93970.39
2024-01-17T18:37:47.829Z,93963.80
2024-01-17T18:40:15.874Z,93955.79
2024-01-17T18:42:44.194Z,93954.50
2024-01-17T18:45:12.406Z,93943.91
2024-01-17T18:47:43.135Z,93946.83
2024-01-17T18:50:15.564Z,93939.02
2024-01-17T18:52:43.599Z,93940.60
2024-01-17T18:55:11.656Z,93943.97
2024-01-17T18:57:39.771Z,93941.45
2024-01-17T19:00:08.810Z,93940.09
2024-01-17T19:02:37.364Z,93936.56
2024-01-17T19:05:05.814Z,93937.27
2024-01-17T19:07:33.865Z,93930.34
2024-01-17T19:10:01.919Z,93931.20
2024-01-17T19:12:30.467Z,93939.15
2024-01-17T19:14:58.574Z,93928.36
2024-01-17T19:17:29.486Z,93918.89
2024-01-17T19:20:00.021Z,93913.64
2024-01-17T19:22:28.585Z,93908.37
2024-01-17T19:24:56.649Z,93895.81
2024-01-17T19:27:25.105Z,93894.27
2024-01-17T19:29:55.259Z,93890.04
2024-01-17T19:32:23.373Z,93886.96
2024-01-17T19:34:51.390Z,93881.83
2024-01-17T19:37:19.586Z,93874.67
2024-01-17T19:39:47.678Z,93866.80
2024-01-17T19:42:16.140Z,93859.31
2024-01-17T19:44:44.557Z,93859.45
2024-01-17T19:47:13.245Z,93855.39
2024-01-17T19:49:41.957Z,93853.52
2024-01-17T19:52:11.836Z,93844.70
2024-01-17T19:54:40.189Z,93838.85
2024-01-17T19:57:08.358Z,93829.88
2024-01-17T19:59:36.386Z,93825.33
2024-01-17T20:02:04.521Z,93823.42
2024-01-17T20:04:32.521Z,93818.34
2024-01-17T20:07:00.705Z,93815.73
2024-01-17T20:09:28.960Z,93815.56
2024-01-17T20:11:57.013Z,93813.77
2024-01-17T20:14:25.280Z,93809.03
2024-01-17T20:16:54.639Z,93802.80
2024-01-17T20:19:22.803Z,93800.64
2024-01-17T20:21:51.417Z,93791.82
2024-01-17T20:24:19.468Z,93780.97
2024-01-17T20:26:47.635Z,93778.23
2024-01-17T20:29:34.314Z,93782.58
2024-01-17T20:32:02.349Z,93776.33
2024-01-17T20:34:31.947Z,93781.36
2024-01-17T20:37:08.599Z,93780.95
2024-01-17T20:39:38.761Z,93766.20
2024-01-17T20:42:07.641Z,93758.23
2024-01-17T20:44:38.908Z,93754.34
2024-01-17T20:47:07.097Z,93743.05
2024-01-17T20:49:35.026Z,93735.63
2024-01-17T20:52:04.839Z,93724.61
2024-01-17T20:54:32.891Z,93725.56
2024-01-17T20:57:00.903Z,93726.39
2024-01-17T20:59:28.896Z,93723.02
2024-01-17T21:01:56.946Z,93722.65
2024-01-17T21:04:24.955Z,93715.14
2024-01-17T21:06:52.972Z,93712.65
2024-01-17T21:09:23.342Z,93708.71
2024-01-17T21:11:51.562Z,93715.27
2024-01-17T21:14:19.535Z,93706.07
2024-01-17T21:16:47.533Z,93685.23
2024-01-17T21:19:15.838Z,93685.02
2024-01-17T21:21:44.275Z,93677.52
2024-01-17T21:24:14.044Z,93678.92
2024-01-17T21:26:45.520Z,93676.27
2024-01-17T21:29:15.603Z,93679.04
2024-01-17T21:31:44.064Z,93673.04
2024-01-17T21:34:12.658Z,93676.05
2024-01-17T21:36:40.899Z,93670.21
2024-01-17T21:39:10.673Z,93679.13
2024-01-17T21:41:38.831Z,93672.60
2024-01-17T21:44:08.991Z,93667.14
2024-01-17T21:46:37.383Z,93652.92
2024-01-17T21:49:05.967Z,93641.48
2024-01-17T21:51:37.180Z,93643.54
2024-01-17T21:54:05.862Z,93639.48
2024-01-17T21:56:34.365Z,93629.96
2024-01-17T21:59:02.526Z,93635.65
2024-01-17T22:01:30.725Z,93625.23
2024-01-17T22:03:59.884Z,93631.65
2024-01-17T22:08:59.680Z,93620.70
2024-01-17T22:11:28.008Z,93617.83
2024-01-17T22:13:56.334Z,93620.00
2024-01-17T22:16:24.526Z,93618.64
2024-01-17T22:18:52.595Z,93612.72
2024-01-17T22:21:20.830Z,93603.39
2024-01-17T22:23:48.950Z,93602.46
2024-01-17T22:26:16.967Z,93589.42
2024-01-17T22:28:45.306Z,93578.66
2024-01-17T22:31:14.302Z,93572.50
2024-01-17T22:33:42.433Z,93579.71
2024-01-17T22:36:20.276Z,93569.77
2024-01-17T22:38:49.281Z,93561.97
2024-01-17T22:41:17.683Z,93551.05
2024-01-17T22:43:46.295Z,93552.77
2024-01-17T22:46:15.181Z,93555.25
2024-01-17T22:48:43.428Z,93548.64
2024-01-17T22:51:11.520Z,93552.94
2024-01-17T22:53:39.429Z,93556.85
2024-01-17T22:56:07.704Z,93555.26
2024-01-17T22:58:35.743Z,93560.60
2024-01-17T23:01:03.771Z,93559.39
2024-01-17T23:03:32.565Z,93554.92
2024-01-17T23:06:00.589Z,93549.44
2024-01-17T23:08:28.661Z,93542.85
2024-01-17T23:11:01.927Z,93539.01
2024-01-17T23:13:36.083Z,93542.89
2024-01-17T23:16:04.329Z,93541.91
2024-01-17T23:18:32.562Z,93535.88
2024-01-17T23:21:00.863Z,93533.81
2024-01-17T23:23:28.788Z,93530.36
2024-01-17T23:25:56.752Z,93524.05
2024-01-17T23:28:24.717Z,93519.86
2024-01-17T23:30:53.160Z,93517.15
2024-01-17T23:33:21.953Z,93522.39
2024-01-17T23:35:50.015Z,93513.45
2024-01-17T23:38:17.961Z,93509.25
2024-01-17T23:40:45.894Z,93505.31
2024-01-17T23:43:13.799Z,93497.58
2024-01-17T23:45:41.997Z,93494.21
2024-01-17T23:48:10.731Z,93497.75
2024-01-17T23:50:38.802Z,93501.07
2024-01-17T23:55:48.430Z,93504.88
2024-01-17T23:58:41.590Z,93504.70
